sensor_id;sensor_type;location;lat;lon;timestamp;P1;durP1;ratioP1;P2;durP2;ratioP2
24585;SDS011;12743;52.262;6.172;2023-09-08T00:01:45;7.25;;;4.60;;
24585;SDS011;12743;52.262;6.172;2023-09-08T00:04:12;7.83;;;4.47;;
24585;SDS011;12743;52.262;6.172;2023-09-08T00:06:39;6.88;;;4.15;;
24585;SDS011;12743;52.262;6.172;2023-09-08T00:09:06;6.65;;;4.22;;
24585;SDS011;12743;52.262;6.172;2023-09-08T00:11:32;6.85;;;4.28;;
24585;SDS011;12743;52.262;6.172;2023-09-08T00:13:59;8.02;;;4.47;;
24585;SDS011;12743;52.262;6.172;2023-09-08T00:16:25;7.03;;;3.90;;
24585;SDS011;12743;52.262;6.172;2023-09-08T00:18:52;7.53;;;4.25;;
24585;SDS011;12743;52.262;6.172;2023-09-08T00:21:19;7.32;;;4.07;;
24585;SDS011;12743;52.262;6.172;2023-09-08T00:23:45;7.70;;;4.38;;
24585;SDS011;12743;52.262;6.172;2023-09-08T00:26:11;6.70;;;4.32;;
24585;SDS011;12743;52.262;6.172;2023-09-08T00:28:40;6.80;;;4.60;;
24585;SDS011;12743;52.262;6.172;2023-09-08T00:31:06;7.63;;;4.25;;
24585;SDS011;12743;52.262;6.172;2023-09-08T00:33:33;9.10;;;4.68;;
24585;SDS011;12743;52.262;6.172;2023-09-08T00:35:59;7.07;;;4.43;;
24585;SDS011;12743;52.262;6.172;2023-09-08T00:38:26;7.28;;;4.28;;
24585;SDS011;12743;52.262;6.172;2023-09-08T00:40:53;6.70;;;4.50;;
24585;SDS011;12743;52.262;6.172;2023-09-08T00:43:19;7.80;;;4.55;;
24585;SDS011;12743;52.262;6.172;2023-09-08T00:45:45;7.30;;;4.65;;
24585;SDS011;12743;52.262;6.172;2023-09-08T00:48:15;6.40;;;4.25;;
24585;SDS011;12743;52.262;6.172;2023-09-08T00:50:43;8.00;;;4.45;;
24585;SDS011;12743;52.262;6.172;2023-09-08T00:53:10;7.80;;;4.77;;
24585;SDS011;12743;52.262;6.172;2023-09-08T00:55:36;8.43;;;4.70;;
24585;SDS011;12743;52.262;6.172;2023-09-08T00:58:05;6.88;;;4.45;;
24585;SDS011;12743;52.262;6.172;2023-09-08T01:00:32;8.07;;;4.60;;
24585;SDS011;12743;52.262;6.172;2023-09-08T01:02:59;9.75;;;5.07;;
24585;SDS011;12743;52.262;6.172;2023-09-08T01:05:26;7.13;;;4.27;;
24585;SDS011;12743;52.262;6.172;2023-09-08T01:07:52;8.45;;;4.95;;
24585;SDS011;12743;52.262;6.172;2023-09-08T01:10:20;7.20;;;5.05;;
24585;SDS011;12743;52.262;6.172;2023-09-08T01:12:46;9.32;;;4.93;;
24585;SDS011;12743;52.262;6.172;2023-09-08T01:15:13;8.43;;;5.00;;
24585;SDS011;12743;52.262;6.172;2023-09-08T01:17:39;10.57;;;5.50;;
24585;SDS011;12743;52.262;6.172;2023-09-08T01:20:09;7.93;;;4.97;;
24585;SDS011;12743;52.262;6.172;2023-09-08T01:22:50;7.95;;;5.50;;
24585;SDS011;12743;52.262;6.172;2023-09-08T01:25:22;8.07;;;5.20;;
24585;SDS011;12743;52.262;6.172;2023-09-08T01:27:53;11.02;;;5.65;;
24585;SDS011;12743;52.262;6.172;2023-09-08T01:30:23;7.87;;;4.80;;
24585;SDS011;12743;52.262;6.172;2023-09-08T01:32:50;8.43;;;5.18;;
24585;SDS011;12743;52.262;6.172;2023-09-08T01:35:17;6.75;;;4.65;;
24585;SDS011;12743;52.262;6.172;2023-09-08T01:37:47;9.13;;;4.75;;
24585;SDS011;12743;52.262;6.172;2023-09-08T01:40:15;8.27;;;4.80;;
24585;SDS011;12743;52.262;6.172;2023-09-08T01:42:41;8.57;;;4.93;;
24585;SDS011;12743;52.262;6.172;2023-09-08T01:45:08;8.18;;;5.32;;
24585;SDS011;12743;52.262;6.172;2023-09-08T01:47:34;8.65;;;5.00;;
24585;SDS011;12743;52.262;6.172;2023-09-08T01:50:01;10.15;;;5.07;;
24585;SDS011;12743;52.262;6.172;2023-09-08T01:52:27;7.68;;;5.07;;
24585;SDS011;12743;52.262;6.172;2023-09-08T01:54:54;7.10;;;4.90;;
24585;SDS011;12743;52.262;6.172;2023-09-08T01:57:20;10.68;;;5.18;;
24585;SDS011;12743;52.262;6.172;2023-09-08T01:59:47;7.82;;;5.22;;
24585;SDS011;12743;52.262;6.172;2023-09-08T02:02:14;8.65;;;5.10;;
24585;SDS011;12743;52.262;6.172;2023-09-08T02:04:40;8.10;;;4.93;;
24585;SDS011;12743;52.262;6.172;2023-09-08T02:07:07;7.43;;;4.80;;
24585;SDS011;12743;52.262;6.172;2023-09-08T02:09:34;7.55;;;4.78;;
24585;SDS011;12743;52.262;6.172;2023-09-08T02:12:01;7.10;;;4.25;;
24585;SDS011;12743;52.262;6.172;2023-09-08T02:14:28;8.68;;;5.50;;
24585;SDS011;12743;52.262;6.172;2023-09-08T02:16:54;8.25;;;4.70;;
24585;SDS011;12743;52.262;6.172;2023-09-08T02:19:22;8.13;;;5.10;;
24585;SDS011;12743;52.262;6.172;2023-09-08T02:21:49;9.23;;;5.47;;
24585;SDS011;12743;52.262;6.172;2023-09-08T02:24:15;9.20;;;5.38;;
24585;SDS011;12743;52.262;6.172;2023-09-08T02:26:42;7.50;;;4.70;;
24585;SDS011;12743;52.262;6.172;2023-09-08T02:29:09;8.88;;;5.30;;
24585;SDS011;12743;52.262;6.172;2023-09-08T02:31:36;9.10;;;5.63;;
24585;SDS011;12743;52.262;6.172;2023-09-08T02:34:04;9.48;;;5.85;;
24585;SDS011;12743;52.262;6.172;2023-09-08T02:36:31;11.55;;;5.25;;
24585;SDS011;12743;52.262;6.172;2023-09-08T02:38:58;8.70;;;5.60;;
24585;SDS011;12743;52.262;6.172;2023-09-08T02:41:25;9.95;;;5.72;;
24585;SDS011;12743;52.262;6.172;2023-09-08T02:43:51;8.50;;;5.00;;
24585;SDS011;12743;52.262;6.172;2023-09-08T02:46:18;8.95;;;5.75;;
24585;SDS011;12743;52.262;6.172;2023-09-08T02:48:44;8.77;;;5.60;;
24585;SDS011;12743;52.262;6.172;2023-09-08T02:51:10;11.13;;;5.90;;
24585;SDS011;12743;52.262;6.172;2023-09-08T02:53:38;9.32;;;5.65;;
24585;SDS011;12743;52.262;6.172;2023-09-08T02:56:04;11.17;;;6.60;;
24585;SDS011;12743;52.262;6.172;2023-09-08T02:58:32;8.85;;;5.68;;
24585;SDS011;12743;52.262;6.172;2023-09-08T03:01:14;8.10;;;5.32;;
24585;SDS011;12743;52.262;6.172;2023-09-08T03:03:42;8.00;;;5.30;;
24585;SDS011;12743;52.262;6.172;2023-09-08T03:06:10;8.60;;;5.78;;
24585;SDS011;12743;52.262;6.172;2023-09-08T03:08:38;9.40;;;5.97;;
24585;SDS011;12743;52.262;6.172;2023-09-08T03:11:05;8.93;;;5.88;;
24585;SDS011;12743;52.262;6.172;2023-09-08T03:13:32;8.75;;;5.55;;
24585;SDS011;12743;52.262;6.172;2023-09-08T03:16:07;10.77;;;5.75;;
24585;SDS011;12743;52.262;6.172;2023-09-08T03:18:34;9.13;;;5.97;;
24585;SDS011;12743;52.262;6.172;2023-09-08T03:21:03;9.53;;;5.80;;
24585;SDS011;12743;52.262;6.172;2023-09-08T03:23:37;9.18;;;5.45;;
24585;SDS011;12743;52.262;6.172;2023-09-08T03:26:03;11.23;;;6.70;;
24585;SDS011;12743;52.262;6.172;2023-09-08T03:28:31;8.85;;;6.03;;
24585;SDS011;12743;52.262;6.172;2023-09-08T03:30:59;8.98;;;6.60;;
24585;SDS011;12743;52.262;6.172;2023-09-08T03:33:25;11.53;;;6.37;;
24585;SDS011;12743;52.262;6.172;2023-09-08T03:35:52;11.75;;;7.00;;
24585;SDS011;12743;52.262;6.172;2023-09-08T03:38:18;9.73;;;6.35;;
24585;SDS011;12743;52.262;6.172;2023-09-08T03:40:45;10.20;;;6.35;;
24585;SDS011;12743;52.262;6.172;2023-09-08T03:43:11;9.35;;;6.65;;
24585;SDS011;12743;52.262;6.172;2023-09-08T03:45:38;10.10;;;6.93;;
24585;SDS011;12743;52.262;6.172;2023-09-08T03:48:05;10.27;;;6.85;;
24585;SDS011;12743;52.262;6.172;2023-09-08T03:50:32;9.18;;;6.45;;
24585;SDS011;12743;52.262;6.172;2023-09-08T03:52:58;10.15;;;7.13;;
24585;SDS011;12743;52.262;6.172;2023-09-08T03:55:25;10.48;;;7.15;;
24585;SDS011;12743;52.262;6.172;2023-09-08T03:57:51;9.43;;;6.80;;
24585;SDS011;12743;52.262;6.172;2023-09-08T04:00:18;10.55;;;6.95;;
24585;SDS011;12743;52.262;6.172;2023-09-08T04:02:48;11.52;;;7.05;;
24585;SDS011;12743;52.262;6.172;2023-09-08T04:05:16;10.10;;;6.13;;
24585;SDS011;12743;52.262;6.172;2023-09-08T04:07:43;8.77;;;6.03;;
24585;SDS011;12743;52.262;6.172;2023-09-08T04:10:10;10.60;;;6.57;;
24585;SDS011;12743;52.262;6.172;2023-09-08T04:12:36;10.85;;;6.57;;
24585;SDS011;12743;52.262;6.172;2023-09-08T04:15:03;10.75;;;6.97;;
24585;SDS011;12743;52.262;6.172;2023-09-08T04:17:29;10.98;;;7.25;;
24585;SDS011;12743;52.262;6.172;2023-09-08T04:19:56;10.98;;;6.78;;
24585;SDS011;12743;52.262;6.172;2023-09-08T04:22:23;9.77;;;7.13;;
24585;SDS011;12743;52.262;6.172;2023-09-08T04:24:49;12.60;;;7.65;;
24585;SDS011;12743;52.262;6.172;2023-09-08T04:27:16;9.77;;;7.13;;
24585;SDS011;12743;52.262;6.172;2023-09-08T04:29:43;11.68;;;7.55;;
24585;SDS011;12743;52.262;6.172;2023-09-08T04:32:09;12.15;;;7.43;;
24585;SDS011;12743;52.262;6.172;2023-09-08T04:34:37;11.90;;;7.10;;
24585;SDS011;12743;52.262;6.172;2023-09-08T04:37:03;15.02;;;7.55;;
24585;SDS011;12743;52.262;6.172;2023-09-08T04:39:30;10.77;;;7.60;;
24585;SDS011;12743;52.262;6.172;2023-09-08T04:41:57;12.52;;;7.70;;
24585;SDS011;12743;52.262;6.172;2023-09-08T04:44:23;10.30;;;7.18;;
24585;SDS011;12743;52.262;6.172;2023-09-08T04:46:51;9.37;;;6.60;;
24585;SDS011;12743;52.262;6.172;2023-09-08T04:49:17;11.57;;;7.70;;
24585;SDS011;12743;52.262;6.172;2023-09-08T04:51:44;9.88;;;6.55;;
24585;SDS011;12743;52.262;6.172;2023-09-08T04:54:13;13.02;;;7.93;;
24585;SDS011;12743;52.262;6.172;2023-09-08T04:56:41;12.07;;;7.68;;
24585;SDS011;12743;52.262;6.172;2023-09-08T04:59:07;11.70;;;7.83;;
24585;SDS011;12743;52.262;6.172;2023-09-08T05:01:34;11.73;;;8.00;;
24585;SDS011;12743;52.262;6.172;2023-09-08T05:04:04;10.57;;;6.97;;
24585;SDS011;12743;52.262;6.172;2023-09-08T05:06:31;13.40;;;7.72;;
24585;SDS011;12743;52.262;6.172;2023-09-08T05:08:58;10.88;;;7.30;;
24585;SDS011;12743;52.262;6.172;2023-09-08T05:11:27;12.37;;;8.67;;
24585;SDS011;12743;52.262;6.172;2023-09-08T05:13:54;11.48;;;7.95;;
24585;SDS011;12743;52.262;6.172;2023-09-08T05:16:20;11.10;;;8.02;;
24585;SDS011;12743;52.262;6.172;2023-09-08T05:19:04;9.77;;;6.68;;
24585;SDS011;12743;52.262;6.172;2023-09-08T05:21:32;9.20;;;6.47;;
24585;SDS011;12743;52.262;6.172;2023-09-08T05:23:59;9.23;;;6.77;;
24585;SDS011;12743;52.262;6.172;2023-09-08T05:26:25;12.90;;;8.18;;
24585;SDS011;12743;52.262;6.172;2023-09-08T05:28:52;11.75;;;8.27;;
24585;SDS011;12743;52.262;6.172;2023-09-08T05:31:18;13.70;;;6.97;;
24585;SDS011;12743;52.262;6.172;2023-09-08T05:33:45;10.15;;;6.63;;
24585;SDS011;12743;52.262;6.172;2023-09-08T05:36:12;11.67;;;7.60;;
24585;SDS011;12743;52.262;6.172;2023-09-08T05:38:42;13.18;;;8.45;;
24585;SDS011;12743;52.262;6.172;2023-09-08T05:41:09;10.43;;;6.65;;
24585;SDS011;12743;52.262;6.172;2023-09-08T05:43:36;9.90;;;6.50;;
24585;SDS011;12743;52.262;6.172;2023-09-08T05:46:02;12.77;;;7.63;;
24585;SDS011;12743;52.262;6.172;2023-09-08T05:48:31;10.60;;;7.40;;
24585;SDS011;12743;52.262;6.172;2023-09-08T05:50:57;11.65;;;7.45;;
24585;SDS011;12743;52.262;6.172;2023-09-08T05:53:25;10.23;;;7.30;;
24585;SDS011;12743;52.262;6.172;2023-09-08T05:55:52;10.30;;;6.85;;
24585;SDS011;12743;52.262;6.172;2023-09-08T05:58:19;11.82;;;6.93;;
24585;SDS011;12743;52.262;6.172;2023-09-08T06:00:45;10.13;;;5.20;;
24585;SDS011;12743;52.262;6.172;2023-09-08T06:03:12;11.43;;;7.38;;
24585;SDS011;12743;52.262;6.172;2023-09-08T06:05:39;14.23;;;8.93;;
24585;SDS011;12743;52.262;6.172;2023-09-08T06:08:05;12.32;;;8.45;;
24585;SDS011;12743;52.262;6.172;2023-09-08T06:10:38;14.07;;;8.38;;
24585;SDS011;12743;52.262;6.172;2023-09-08T06:13:06;10.87;;;7.73;;
24585;SDS011;12743;52.262;6.172;2023-09-08T06:15:34;12.25;;;7.75;;
24585;SDS011;12743;52.262;6.172;2023-09-08T06:18:02;11.38;;;7.93;;
24585;SDS011;12743;52.262;6.172;2023-09-08T06:20:29;11.05;;;6.78;;
24585;SDS011;12743;52.262;6.172;2023-09-08T06:22:56;11.73;;;8.30;;
24585;SDS011;12743;52.262;6.172;2023-09-08T06:25:22;12.60;;;8.10;;
24585;SDS011;12743;52.262;6.172;2023-09-08T06:27:49;12.85;;;8.00;;
24585;SDS011;12743;52.262;6.172;2023-09-08T06:30:16;11.00;;;7.55;;
24585;SDS011;12743;52.262;6.172;2023-09-08T06:32:44;11.77;;;8.13;;
24585;SDS011;12743;52.262;6.172;2023-09-08T06:35:11;12.10;;;7.35;;
24585;SDS011;12743;52.262;6.172;2023-09-08T06:37:38;14.63;;;7.43;;
24585;SDS011;12743;52.262;6.172;2023-09-08T06:40:06;15.10;;;8.38;;
24585;SDS011;12743;52.262;6.172;2023-09-08T06:42:33;11.80;;;7.38;;
24585;SDS011;12743;52.262;6.172;2023-09-08T06:45:09;11.77;;;8.30;;
24585;SDS011;12743;52.262;6.172;2023-09-08T06:47:36;13.48;;;8.05;;
24585;SDS011;12743;52.262;6.172;2023-09-08T06:50:03;11.33;;;7.40;;
24585;SDS011;12743;52.262;6.172;2023-09-08T06:52:30;8.90;;;5.97;;
24585;SDS011;12743;52.262;6.172;2023-09-08T06:54:57;13.25;;;7.53;;
24585;SDS011;12743;52.262;6.172;2023-09-08T06:57:23;18.63;;;7.82;;
24585;SDS011;12743;52.262;6.172;2023-09-08T06:59:50;17.05;;;7.90;;
24585;SDS011;12743;52.262;6.172;2023-09-08T07:02:17;12.10;;;8.43;;
24585;SDS011;12743;52.262;6.172;2023-09-08T07:04:44;12.57;;;7.88;;
24585;SDS011;12743;52.262;6.172;2023-09-08T07:07:11;12.95;;;8.27;;
24585;SDS011;12743;52.262;6.172;2023-09-08T07:09:39;13.50;;;7.78;;
24585;SDS011;12743;52.262;6.172;2023-09-08T07:12:06;12.38;;;7.97;;
24585;SDS011;12743;52.262;6.172;2023-09-08T07:14:33;13.30;;;9.13;;
24585;SDS011;12743;52.262;6.172;2023-09-08T07:16:59;13.68;;;8.35;;
24585;SDS011;12743;52.262;6.172;2023-09-08T07:19:27;14.50;;;9.38;;
24585;SDS011;12743;52.262;6.172;2023-09-08T07:21:53;12.98;;;9.27;;
24585;SDS011;12743;52.262;6.172;2023-09-08T07:24:21;15.80;;;8.32;;
24585;SDS011;12743;52.262;6.172;2023-09-08T07:26:47;13.10;;;7.97;;
24585;SDS011;12743;52.262;6.172;2023-09-08T07:29:14;14.95;;;7.57;;
24585;SDS011;12743;52.262;6.172;2023-09-08T07:31:41;14.45;;;7.47;;
24585;SDS011;12743;52.262;6.172;2023-09-08T07:34:08;15.93;;;7.47;;
24585;SDS011;12743;52.262;6.172;2023-09-08T07:36:35;14.27;;;7.28;;
24585;SDS011;12743;52.262;6.172;2023-09-08T07:39:02;11.23;;;6.90;;
24585;SDS011;12743;52.262;6.172;2023-09-08T07:41:29;11.57;;;6.88;;
24585;SDS011;12743;52.262;6.172;2023-09-08T07:43:55;11.25;;;6.25;;
24585;SDS011;12743;52.262;6.172;2023-09-08T07:46:24;9.75;;;6.00;;
24585;SDS011;12743;52.262;6.172;2023-09-08T07:48:50;11.73;;;6.60;;
24585;SDS011;12743;52.262;6.172;2023-09-08T07:51:17;11.50;;;6.73;;
24585;SDS011;12743;52.262;6.172;2023-09-08T07:53:43;11.18;;;6.97;;
24585;SDS011;12743;52.262;6.172;2023-09-08T07:56:10;9.70;;;6.55;;
24585;SDS011;12743;52.262;6.172;2023-09-08T07:58:36;14.40;;;6.45;;
24585;SDS011;12743;52.262;6.172;2023-09-08T08:01:04;11.23;;;6.43;;
24585;SDS011;12743;52.262;6.172;2023-09-08T08:03:30;10.77;;;6.03;;
24585;SDS011;12743;52.262;6.172;2023-09-08T08:05:57;13.07;;;6.60;;
24585;SDS011;12743;52.262;6.172;2023-09-08T08:08:24;10.35;;;6.15;;
24585;SDS011;12743;52.262;6.172;2023-09-08T08:10:51;12.35;;;6.78;;
24585;SDS011;12743;52.262;6.172;2023-09-08T08:13:17;10.48;;;6.10;;
24585;SDS011;12743;52.262;6.172;2023-09-08T08:15:44;12.43;;;6.33;;
24585;SDS011;12743;52.262;6.172;2023-09-08T08:18:13;9.60;;;5.70;;
24585;SDS011;12743;52.262;6.172;2023-09-08T08:20:39;9.93;;;5.90;;
24585;SDS011;12743;52.262;6.172;2023-09-08T08:23:06;10.18;;;6.28;;
24585;SDS011;12743;52.262;6.172;2023-09-08T08:25:33;11.48;;;6.93;;
24585;SDS011;12743;52.262;6.172;2023-09-08T08:27:59;9.93;;;6.37;;
24585;SDS011;12743;52.262;6.172;2023-09-08T08:30:27;11.13;;;6.65;;
24585;SDS011;12743;52.262;6.172;2023-09-08T08:32:53;10.23;;;6.32;;
24585;SDS011;12743;52.262;6.172;2023-09-08T08:35:20;10.30;;;5.80;;
24585;SDS011;12743;52.262;6.172;2023-09-08T08:37:47;12.07;;;6.18;;
24585;SDS011;12743;52.262;6.172;2023-09-08T08:40:13;11.07;;;5.90;;
24585;SDS011;12743;52.262;6.172;2023-09-08T08:42:40;12.73;;;6.68;;
24585;SDS011;12743;52.262;6.172;2023-09-08T08:45:07;11.60;;;5.93;;
24585;SDS011;12743;52.262;6.172;2023-09-08T08:47:33;10.38;;;6.05;;
24585;SDS011;12743;52.262;6.172;2023-09-08T08:50:00;11.98;;;5.90;;
24585;SDS011;12743;52.262;6.172;2023-09-08T08:52:28;11.13;;;7.17;;
24585;SDS011;12743;52.262;6.172;2023-09-08T08:54:55;12.07;;;6.95;;
24585;SDS011;12743;52.262;6.172;2023-09-08T08:57:22;12.40;;;6.40;;
24585;SDS011;12743;52.262;6.172;2023-09-08T08:59:49;12.27;;;6.43;;
24585;SDS011;12743;52.262;6.172;2023-09-08T09:02:18;11.50;;;5.85;;
24585;SDS011;12743;52.262;6.172;2023-09-08T09:04:45;9.97;;;5.60;;
24585;SDS011;12743;52.262;6.172;2023-09-08T09:07:11;8.82;;;5.47;;
24585;SDS011;12743;52.262;6.172;2023-09-08T09:09:38;8.90;;;5.65;;
24585;SDS011;12743;52.262;6.172;2023-09-08T09:12:06;8.77;;;5.45;;
24585;SDS011;12743;52.262;6.172;2023-09-08T09:14:33;8.82;;;5.35;;
24585;SDS011;12743;52.262;6.172;2023-09-08T09:17:00;10.73;;;5.83;;
24585;SDS011;12743;52.262;6.172;2023-09-08T09:19:27;10.80;;;6.00;;
24585;SDS011;12743;52.262;6.172;2023-09-08T09:21:55;9.95;;;6.13;;
24585;SDS011;12743;52.262;6.172;2023-09-08T09:24:35;13.00;;;5.95;;
24585;SDS011;12743;52.262;6.172;2023-09-08T09:27:04;9.35;;;5.95;;
24585;SDS011;12743;52.262;6.172;2023-09-08T09:29:34;10.03;;;6.13;;
24585;SDS011;12743;52.262;6.172;2023-09-08T09:32:04;9.40;;;6.22;;
24585;SDS011;12743;52.262;6.172;2023-09-08T09:34:32;9.10;;;6.28;;
24585;SDS011;12743;52.262;6.172;2023-09-08T09:36:58;10.55;;;6.50;;
24585;SDS011;12743;52.262;6.172;2023-09-08T09:39:25;10.60;;;6.60;;
24585;SDS011;12743;52.262;6.172;2023-09-08T09:41:55;11.53;;;5.70;;
24585;SDS011;12743;52.262;6.172;2023-09-08T09:44:22;10.60;;;6.45;;
24585;SDS011;12743;52.262;6.172;2023-09-08T09:46:51;11.63;;;5.95;;
24585;SDS011;12743;52.262;6.172;2023-09-08T09:49:18;9.55;;;5.68;;
24585;SDS011;12743;52.262;6.172;2023-09-08T09:51:46;9.18;;;6.25;;
24585;SDS011;12743;52.262;6.172;2023-09-08T09:54:13;10.53;;;6.67;;
24585;SDS011;12743;52.262;6.172;2023-09-08T09:56:41;13.15;;;6.07;;
24585;SDS011;12743;52.262;6.172;2023-09-08T09:59:12;14.30;;;7.15;;
24585;SDS011;12743;52.262;6.172;2023-09-08T10:01:41;12.93;;;8.02;;
24585;SDS011;12743;52.262;6.172;2023-09-08T10:04:09;9.13;;;6.90;;
24585;SDS011;12743;52.262;6.172;2023-09-08T10:06:37;12.40;;;7.33;;
24585;SDS011;12743;52.262;6.172;2023-09-08T10:09:04;10.35;;;6.22;;
24585;SDS011;12743;52.262;6.172;2023-09-08T10:11:44;12.90;;;6.55;;
24585;SDS011;12743;52.262;6.172;2023-09-08T10:14:13;10.48;;;6.40;;
24585;SDS011;12743;52.262;6.172;2023-09-08T10:16:40;9.57;;;5.35;;
24585;SDS011;12743;52.262;6.172;2023-09-08T10:19:09;6.90;;;4.77;;
24585;SDS011;12743;52.262;6.172;2023-09-08T10:21:42;9.50;;;5.63;;
24585;SDS011;12743;52.262;6.172;2023-09-08T10:24:15;10.85;;;5.78;;
24585;SDS011;12743;52.262;6.172;2023-09-08T10:26:47;8.43;;;5.65;;
24585;SDS011;12743;52.262;6.172;2023-09-08T10:29:18;10.15;;;5.07;;
24585;SDS011;12743;52.262;6.172;2023-09-08T10:31:45;9.33;;;5.67;;
24585;SDS011;12743;52.262;6.172;2023-09-08T10:34:12;9.77;;;4.80;;
24585;SDS011;12743;52.262;6.172;2023-09-08T10:36:39;8.48;;;5.22;;
24585;SDS011;12743;52.262;6.172;2023-09-08T10:41:51;9.50;;;5.10;;
24585;SDS011;12743;52.262;6.172;2023-09-08T10:44:38;10.50;;;4.90;;
24585;SDS011;12743;52.262;6.172;2023-09-08T10:47:04;10.07;;;5.20;;
24585;SDS011;12743;52.262;6.172;2023-09-08T10:49:34;9.15;;;4.95;;
24585;SDS011;12743;52.262;6.172;2023-09-08T10:52:08;8.00;;;5.22;;
24585;SDS011;12743;52.262;6.172;2023-09-08T10:54:45;8.25;;;4.78;;
24585;SDS011;12743;52.262;6.172;2023-09-08T10:57:14;6.97;;;5.03;;
24585;SDS011;12743;52.262;6.172;2023-09-08T10:59:54;8.43;;;4.90;;
24585;SDS011;12743;52.262;6.172;2023-09-08T11:02:31;7.70;;;4.85;;
24585;SDS011;12743;52.262;6.172;2023-09-08T11:04:58;9.02;;;5.28;;
24585;SDS011;12743;52.262;6.172;2023-09-08T11:07:26;7.72;;;5.10;;
24585;SDS011;12743;52.262;6.172;2023-09-08T11:09:52;7.70;;;5.00;;
24585;SDS011;12743;52.262;6.172;2023-09-08T11:12:18;7.03;;;4.90;;
24585;SDS011;12743;52.262;6.172;2023-09-08T11:14:49;10.52;;;4.60;;
24585;SDS011;12743;52.262;6.172;2023-09-08T11:17:15;7.53;;;5.05;;
24585;SDS011;12743;52.262;6.172;2023-09-08T11:19:44;7.10;;;4.40;;
24585;SDS011;12743;52.262;6.172;2023-09-08T11:22:11;7.53;;;4.40;;
24585;SDS011;12743;52.262;6.172;2023-09-08T11:24:37;6.53;;;4.80;;
24585;SDS011;12743;52.262;6.172;2023-09-08T11:27:04;9.32;;;4.10;;
24585;SDS011;12743;52.262;6.172;2023-09-08T11:29:31;7.93;;;4.50;;
24585;SDS011;12743;52.262;6.172;2023-09-08T11:31:58;7.72;;;5.22;;
24585;SDS011;12743;52.262;6.172;2023-09-08T11:34:24;7.93;;;5.40;;
24585;SDS011;12743;52.262;6.172;2023-09-08T11:36:51;8.15;;;4.70;;
24585;SDS011;12743;52.262;6.172;2023-09-08T11:39:19;7.75;;;4.85;;
24585;SDS011;12743;52.262;6.172;2023-09-08T11:41:49;7.15;;;4.80;;
24585;SDS011;12743;52.262;6.172;2023-09-08T11:44:16;7.40;;;4.85;;
24585;SDS011;12743;52.262;6.172;2023-09-08T11:46:43;8.07;;;4.80;;
24585;SDS011;12743;52.262;6.172;2023-09-08T11:49:10;5.80;;;4.43;;
24585;SDS011;12743;52.262;6.172;2023-09-08T11:51:36;7.85;;;4.72;;
24585;SDS011;12743;52.262;6.172;2023-09-08T11:54:04;7.57;;;4.75;;
24585;SDS011;12743;52.262;6.172;2023-09-08T11:56:30;8.10;;;4.68;;
24585;SDS011;12743;52.262;6.172;2023-09-08T11:58:58;8.27;;;4.63;;
24585;SDS011;12743;52.262;6.172;2023-09-08T12:01:24;9.23;;;4.75;;
24585;SDS011;12743;52.262;6.172;2023-09-08T12:03:51;8.80;;;4.80;;
24585;SDS011;12743;52.262;6.172;2023-09-08T12:06:19;8.68;;;4.78;;
24585;SDS011;12743;52.262;6.172;2023-09-08T12:08:45;8.75;;;4.85;;
24585;SDS011;12743;52.262;6.172;2023-09-08T12:11:12;9.97;;;4.20;;
24585;SDS011;12743;52.262;6.172;2023-09-08T12:13:38;7.15;;;4.80;;
24585;SDS011;12743;52.262;6.172;2023-09-08T12:16:18;6.03;;;4.45;;
24585;SDS011;12743;52.262;6.172;2023-09-08T12:18:44;9.73;;;4.88;;
24585;SDS011;12743;52.262;6.172;2023-09-08T12:21:11;7.65;;;4.40;;
24585;SDS011;12743;52.262;6.172;2023-09-08T12:23:59;7.27;;;4.80;;
24585;SDS011;12743;52.262;6.172;2023-09-08T12:26:24;8.18;;;4.30;;
24585;SDS011;12743;52.262;6.172;2023-09-08T12:28:51;7.57;;;4.57;;
24585;SDS011;12743;52.262;6.172;2023-09-08T12:31:17;8.23;;;4.90;;
24585;SDS011;12743;52.262;6.172;2023-09-08T12:33:44;9.88;;;5.00;;
24585;SDS011;12743;52.262;6.172;2023-09-08T12:36:18;7.40;;;4.70;;
24585;SDS011;12743;52.262;6.172;2023-09-08T12:38:48;8.02;;;4.68;;
24585;SDS011;12743;52.262;6.172;2023-09-08T12:41:15;7.05;;;4.40;;
24585;SDS011;12743;52.262;6.172;2023-09-08T12:43:42;7.40;;;4.28;;
24585;SDS011;12743;52.262;6.172;2023-09-08T12:46:08;6.65;;;4.40;;
24585;SDS011;12743;52.262;6.172;2023-09-08T12:48:35;6.87;;;4.70;;
24585;SDS011;12743;52.262;6.172;2023-09-08T12:51:02;6.85;;;4.10;;
24585;SDS011;12743;52.262;6.172;2023-09-08T12:53:33;7.80;;;4.68;;
24585;SDS011;12743;52.262;6.172;2023-09-08T12:56:00;8.65;;;4.18;;
24585;SDS011;12743;52.262;6.172;2023-09-08T12:58:27;8.48;;;4.78;;
24585;SDS011;12743;52.262;6.172;2023-09-08T13:00:54;8.33;;;5.20;;
24585;SDS011;12743;52.262;6.172;2023-09-08T13:03:22;8.75;;;4.45;;
24585;SDS011;12743;52.262;6.172;2023-09-08T13:05:48;7.53;;;4.10;;
24585;SDS011;12743;52.262;6.172;2023-09-08T13:08:15;8.00;;;4.78;;
24585;SDS011;12743;52.262;6.172;2023-09-08T13:10:41;7.13;;;4.28;;
24585;SDS011;12743;52.262;6.172;2023-09-08T13:13:08;6.17;;;4.30;;
24585;SDS011;12743;52.262;6.172;2023-09-08T13:15:34;6.97;;;4.50;;
24585;SDS011;12743;52.262;6.172;2023-09-08T13:18:01;8.52;;;4.70;;
24585;SDS011;12743;52.262;6.172;2023-09-08T13:20:28;7.43;;;4.60;;
24585;SDS011;12743;52.262;6.172;2023-09-08T13:22:54;10.23;;;4.38;;
24585;SDS011;12743;52.262;6.172;2023-09-08T13:25:21;7.97;;;4.30;;
24585;SDS011;12743;52.262;6.172;2023-09-08T13:27:47;6.75;;;4.40;;
24585;SDS011;12743;52.262;6.172;2023-09-08T13:30:14;8.13;;;4.60;;
24585;SDS011;12743;52.262;6.172;2023-09-08T13:32:41;8.20;;;4.57;;
24585;SDS011;12743;52.262;6.172;2023-09-08T13:35:09;6.72;;;4.38;;
24585;SDS011;12743;52.262;6.172;2023-09-08T13:37:35;5.90;;;3.77;;
24585;SDS011;12743;52.262;6.172;2023-09-08T13:40:04;7.13;;;4.40;;
24585;SDS011;12743;52.262;6.172;2023-09-08T13:42:31;7.35;;;4.47;;
24585;SDS011;12743;52.262;6.172;2023-09-08T13:44:58;6.22;;;4.63;;
24585;SDS011;12743;52.262;6.172;2023-09-08T13:47:24;7.97;;;4.60;;
24585;SDS011;12743;52.262;6.172;2023-09-08T13:49:51;7.87;;;5.50;;
24585;SDS011;12743;52.262;6.172;2023-09-08T13:52:19;8.95;;;4.90;;
24585;SDS011;12743;52.262;6.172;2023-09-08T13:54:48;7.30;;;4.40;;
24585;SDS011;12743;52.262;6.172;2023-09-08T13:57:17;7.78;;;4.55;;
24585;SDS011;12743;52.262;6.172;2023-09-08T13:59:48;7.28;;;4.53;;
24585;SDS011;12743;52.262;6.172;2023-09-08T14:02:15;6.60;;;4.10;;
24585;SDS011;12743;52.262;6.172;2023-09-08T14:05:01;6.70;;;4.35;;
24585;SDS011;12743;52.262;6.172;2023-09-08T14:07:32;7.25;;;4.50;;
24585;SDS011;12743;52.262;6.172;2023-09-08T14:10:03;25.90;;;5.38;;
24585;SDS011;12743;52.262;6.172;2023-09-08T14:12:36;7.63;;;4.50;;
24585;SDS011;12743;52.262;6.172;2023-09-08T14:15:03;8.70;;;4.80;;
24585;SDS011;12743;52.262;6.172;2023-09-08T14:17:30;7.13;;;4.68;;
24585;SDS011;12743;52.262;6.172;2023-09-08T14:19:56;9.73;;;5.07;;
24585;SDS011;12743;52.262;6.172;2023-09-08T14:22:23;6.15;;;4.60;;
24585;SDS011;12743;52.262;6.172;2023-09-08T14:24:49;6.65;;;4.65;;
24585;SDS011;12743;52.262;6.172;2023-09-08T14:27:16;7.47;;;4.37;;
24585;SDS011;12743;52.262;6.172;2023-09-08T14:29:42;8.05;;;4.55;;
24585;SDS011;12743;52.262;6.172;2023-09-08T14:32:09;7.15;;;4.85;;
24585;SDS011;12743;52.262;6.172;2023-09-08T14:34:35;10.65;;;4.70;;
24585;SDS011;12743;52.262;6.172;2023-09-08T14:37:02;8.43;;;4.50;;
24585;SDS011;12743;52.262;6.172;2023-09-08T14:39:31;8.87;;;4.77;;
24585;SDS011;12743;52.262;6.172;2023-09-08T14:41:57;8.48;;;4.30;;
24585;SDS011;12743;52.262;6.172;2023-09-08T14:44:24;7.50;;;4.90;;
24585;SDS011;12743;52.262;6.172;2023-09-08T14:46:51;6.82;;;5.00;;
24585;SDS011;12743;52.262;6.172;2023-09-08T14:49:18;6.50;;;4.47;;